Country
Station

 

Weather  for  Sdr Stroemfjord  -  Greenland    Greenland

  
-5 °C (23 °F)
    
 
 

Current METAR for Sdr Stroemfjord is :

BGSF 180950Z AUTO 08011KT 9999NDV NCD M05/M12 Q1019

 

This is a report for Sdr Stroemfjord - Greenland.
 
The report was made 23 minutes ago, at 09:50 UTC .
The wind was blowing at a speed of 5.7 meters per second (12.7 miles per hour) from east (080°).
 
The temperature was -5 °C (23 °F), with a dew-point at -12 °C (10 °F).
The temperature felt like -11 °C (11 °F).
 
The atmospheric pressure was 1019 hPa (30.09 inHg).
The relative humidity was 57.8%.
 

 
 
 
 

Country :   A   B   C   D   E   F   G   H   I   J   K   L   M   N   O   P   Q   R   S   T   U   V   W   Y   Z

 

Site Info  |  Disclaimer  |  Credits  |  Privacy
Contact us  |  Add to favorites
© 2013-2019 METARs - All rights reserved